createdAt,value
2019-04-23T00:01:29.994Z,98298.55
2019-04-23T00:03:51.601Z,98295.11
2019-04-23T00:06:24.832Z,98287.14
2019-04-23T00:11:35.656Z,98271.13
2019-04-23T00:13:58.083Z,98270.80
2019-04-23T00:18:49.683Z,98266.75
2019-04-23T00:22:05.503Z,98260.14
2019-04-23T00:27:37.250Z,98262.68
2019-04-23T00:30:20.280Z,98256.30
2019-04-23T00:35:00.709Z,98249.56
2019-04-23T00:37:31.347Z,98244.20
2019-04-23T00:39:59.193Z,98248.37
2019-04-23T00:42:36.600Z,98236.78
2019-04-23T00:44:56.267Z,98234.84
2019-04-23T00:47:33.005Z,98232.80
2019-04-23T00:50:07.747Z,98236.59
2019-04-23T00:55:07.581Z,98226.05
2019-04-23T00:57:29.367Z,98223.75
2019-04-23T01:00:03.475Z,98216.70
2019-04-23T01:02:31.145Z,98217.27
2019-04-23T01:05:04.731Z,98213.12
2019-04-23T01:10:08.777Z,98205.25
2019-04-23T01:12:41.036Z,98202.55
2019-04-23T01:15:04.761Z,98206.72
2019-04-23T01:17:39.564Z,98204.46
2019-04-23T01:20:14.820Z,98197.53
2019-04-23T01:22:31.488Z,98195.17
2019-04-23T01:25:28.663Z,98188.52
2019-04-23T01:28:15.461Z,98184.97
2019-04-23T01:30:46.904Z,98182.36
2019-04-23T01:33:21.238Z,98183.44
2019-04-23T01:35:57.345Z,98170.47
2019-04-23T01:38:18.470Z,98164.75
2019-04-23T01:41:02.104Z,98167.95
2019-04-23T01:43:16.419Z,98165.58
2019-04-23T01:45:34.180Z,98157.43
2019-04-23T01:48:13.135Z,98157.64
2019-04-23T01:50:48.684Z,98152.81
2019-04-23T01:53:18.373Z,98146.40
2019-04-23T01:55:46.925Z,98145.45
2019-04-23T01:58:36.554Z,98143.17
2019-04-23T02:00:47.684Z,98144.30
2019-04-23T02:03:15.516Z,98135.38
2019-04-23T02:08:17.475Z,98135.45
2019-04-23T02:10:51.418Z,98135.84
2019-04-23T02:13:16.515Z,98127.18
2019-04-23T02:15:42.019Z,98124.84
2019-04-23T02:20:47.819Z,98120.16
2019-04-23T02:26:09.060Z,98117.66
2019-04-23T02:28:31.544Z,98114.08
2019-04-23T02:33:34.491Z,98107.04
2019-04-23T02:38:42.205Z,98095.13
2019-04-23T02:43:20.210Z,98092.79
2019-04-23T02:46:02.400Z,98088.65
2019-04-23T02:53:42.208Z,98076.13
2019-04-23T02:56:05.089Z,98076.03
2019-04-23T03:01:18.323Z,98073.94
2019-04-23T03:03:38.343Z,98068.73
2019-04-23T03:05:58.694Z,98070.34
2019-04-23T03:11:07.755Z,98059.69
2019-04-23T03:13:51.164Z,98052.21
2019-04-23T03:18:58.186Z,98050.31
2019-04-23T03:21:31.304Z,98049.47
2019-04-23T03:27:10.392Z,98047.72
2019-04-23T03:29:35.589Z,98052.82
2019-04-23T03:39:53.023Z,98044.05
2019-04-23T03:47:24.895Z,98041.42
2019-04-23T03:49:56.039Z,98037.74
2019-04-23T03:59:58.900Z,98037.13
2019-04-23T04:07:29.359Z,98036.44
2019-04-23T04:12:25.473Z,98037.07
2019-04-23T04:27:19.494Z,98039.98
2019-04-23T04:29:54.838Z,98043.58
2019-04-23T04:32:42.921Z,98041.14
2019-04-23T04:44:47.871Z,98036.12
2019-04-23T04:47:21.371Z,98038.41
2019-04-23T04:52:44.303Z,98038.36
2019-04-23T04:54:32.150Z,98039.65
2019-04-23T04:57:37.256Z,98038.84
2019-04-23T04:59:53.868Z,98036.27
2019-04-23T05:07:23.517Z,98040.22
2019-04-23T05:10:01.712Z,98047.07
2019-04-23T05:12:25.511Z,98038.88
2019-04-23T05:14:52.661Z,98030.44
2019-04-23T05:17:32.542Z,98020.92
2019-04-23T05:19:58.937Z,98017.07
2019-04-23T05:22:31.201Z,98024.36
2019-04-23T05:24:51.051Z,98019.37
2019-04-23T05:27:28.974Z,98017.77
2019-04-23T05:32:23.751Z,98010.14
2019-04-23T05:35:00.597Z,98002.78
2019-04-23T05:37:20.506Z,98000.41
2019-04-23T05:40:18.709Z,97997.53
2019-04-23T05:42:19.368Z,97995.98
2019-04-23T05:47:27.901Z,97987.35
2019-04-23T05:49:57.646Z,97979.52
2019-04-23T05:52:27.865Z,97980.70
2019-04-23T05:57:13.725Z,97959.89
2019-04-23T05:59:51.708Z,97948.58
2019-04-23T06:02:17.744Z,97940.16
2019-04-23T06:04:49.633Z,97947.55
2019-04-23T06:07:28.803Z,97943.30
2019-04-23T06:09:49.893Z,97965.22
2019-04-23T06:12:14.549Z,97952.48
2019-04-23T06:17:24.240Z,97935.09
2019-04-23T06:19:52.977Z,97941.23
2019-04-23T06:23:05.486Z,97941.03
2019-04-23T06:25:30.798Z,97948.72
2019-04-23T06:27:49.395Z,97941.83
2019-04-23T06:30:21.566Z,97950.27
2019-04-23T06:33:08.805Z,97928.63
2019-04-23T06:35:29.453Z,97940.14
2019-04-23T06:38:22.963Z,97938.27
2019-04-23T06:40:34.288Z,97931.09
2019-04-23T06:43:16.605Z,97932.12
2019-04-23T06:45:37.518Z,97933.98
2019-04-23T06:48:09.154Z,97932.52
2019-04-23T06:50:43.313Z,97938.11
2019-04-23T06:53:02.449Z,97929.35
2019-04-23T06:55:37.438Z,97928.20
2019-04-23T06:58:15.699Z,97929.02
2019-04-23T07:00:41.204Z,97915.80
2019-04-23T07:03:09.478Z,97919.39
2019-04-23T07:06:13.937Z,97921.31
2019-04-23T07:08:32.714Z,97925.28
2019-04-23T07:10:57.535Z,97923.51
2019-04-23T07:13:36.149Z,97912.62
2019-04-23T07:15:51.744Z,97914.12
2019-04-23T07:18:22.538Z,97911.83
2019-04-23T07:21:00.648Z,97908.94
2019-04-23T07:23:28.450Z,97910.89
2019-04-23T07:25:59.372Z,97903.48
2019-04-23T07:28:37.241Z,97894.28
2019-04-23T07:31:00.418Z,97887.99
2019-04-23T07:33:29.790Z,97886.22
2019-04-23T07:36:03.884Z,97898.04
2019-04-23T07:41:59.411Z,97890.23
2019-04-23T07:44:42.375Z,97889.77
2019-04-23T07:49:49.097Z,97876.25
2019-04-23T07:52:24.202Z,97865.44
2019-04-23T07:54:52.657Z,97861.71
2019-04-23T07:59:50.303Z,97859.06
2019-04-23T08:02:21.414Z,97865.50
2019-04-23T08:04:56.566Z,97861.16
2019-04-23T08:07:17.937Z,97862.80
2019-04-23T08:09:48.466Z,97866.36
2019-04-23T08:12:23.796Z,97863.92
2019-04-23T08:14:48.244Z,97859.27
2019-04-23T08:17:10.370Z,97859.10
2019-04-23T08:19:49.394Z,97855.47
2019-04-23T08:22:23.155Z,97862.00
2019-04-23T08:27:22.396Z,97854.55
2019-04-23T08:29:55.677Z,97844.95
2019-04-23T08:37:38.058Z,97845.43
2019-04-23T08:39:52.434Z,97848.98
2019-04-23T08:42:39.673Z,97831.30
2019-04-23T08:45:31.352Z,97828.70
2019-04-23T08:55:50.054Z,97824.66
2019-04-23T08:58:23.829Z,97818.63
2019-04-23T09:00:58.583Z,97819.38
2019-04-23T09:03:25.826Z,97818.96
2019-04-23T09:05:57.782Z,97748.70
2019-04-23T09:10:58.073Z,97816.17
2019-04-23T09:15:49.911Z,97810.73
2019-04-23T09:18:33.144Z,97812.08
2019-04-23T09:20:44.605Z,97811.70
2019-04-23T09:23:32.942Z,97815.33
2019-04-23T09:28:31.089Z,97798.84
2019-04-23T09:30:55.435Z,97799.41
2019-04-23T09:33:39.817Z,97802.62
2019-04-23T09:36:27.500Z,97796.56
2019-04-23T09:41:39.920Z,97797.75
2019-04-23T09:47:26.229Z,97792.70
2019-04-23T09:49:50.181Z,97791.55
2019-04-23T09:52:41.073Z,97787.59
2019-04-23T09:54:51.348Z,97776.17
2019-04-23T09:57:10.798Z,97772.44
2019-04-23T09:59:46.790Z,97781.88
2019-04-23T10:02:08.682Z,97776.84
2019-04-23T10:04:31.899Z,97779.72
2019-04-23T10:07:01.284Z,97778.55
2019-04-23T10:09:16.694Z,97773.48
2019-04-23T10:11:47.236Z,97766.61
2019-04-23T10:14:16.482Z,97767.10
2019-04-23T10:16:45.173Z,97759.58
2019-04-23T10:19:13.119Z,97757.00
2019-04-23T10:21:49.210Z,97756.73
2019-04-23T10:24:17.090Z,97755.49
2019-04-23T10:26:46.085Z,97754.77
2019-04-23T10:29:18.406Z,97743.96
2019-04-23T10:31:46.208Z,97741.77
2019-04-23T10:34:14.799Z,97745.55
2019-04-23T10:36:44.139Z,97733.79
2019-04-23T10:39:19.539Z,97737.67
2019-04-23T10:41:57.647Z,97729.13
2019-04-23T10:44:33.003Z,97722.96
2019-04-23T10:48:07.477Z,97733.14
2019-04-23T10:58:24.956Z,97719.45
2019-04-23T11:00:53.444Z,97711.05
2019-04-23T11:03:41.937Z,97708.41
2019-04-23T11:06:00.189Z,97712.80
2019-04-23T11:08:25.624Z,97714.70
2019-04-23T11:10:58.558Z,97710.14
2019-04-23T11:13:31.507Z,97707.44
2019-04-23T11:18:53.889Z,97698.19
2019-04-23T11:21:13.994Z,97703.89
2019-04-23T11:23:34.847Z,97697.63
2019-04-23T11:26:20.034Z,97709.94
2019-04-23T11:28:41.694Z,97699.96
2019-04-23T11:31:25.063Z,97703.63
2019-04-23T11:33:46.446Z,97702.86
2019-04-23T11:36:43.582Z,97703.67
2019-04-23T11:38:54.787Z,97702.95
2019-04-23T11:41:20.728Z,97698.70
2019-04-23T11:43:44.336Z,97697.04
2019-04-23T11:48:52.278Z,97693.47
2019-04-23T11:53:50.985Z,97689.78
2019-04-23T11:56:22.870Z,97683.69
2019-04-23T11:58:42.751Z,97686.03
2019-04-23T12:04:28.825Z,97688.04
2019-04-23T12:07:06.224Z,97687.48
2019-04-23T12:09:46.563Z,97680.91
2019-04-23T12:12:13.233Z,97679.38
2019-04-23T12:17:24.892Z,97682.68
2019-04-23T12:19:56.126Z,97681.70
2019-04-23T12:22:21.827Z,97690.92
2019-04-23T12:25:06.490Z,97681.55
2019-04-23T12:27:23.498Z,97679.73
2019-04-23T12:29:46.271Z,97676.82
2019-04-23T12:37:34.651Z,97681.20
2019-04-23T12:40:13.018Z,97678.91
2019-04-23T12:42:57.144Z,97673.95
2019-04-23T12:47:46.333Z,97673.61
2019-04-23T12:50:21.390Z,97666.69
2019-04-23T12:52:34.311Z,97665.89
2019-04-23T12:57:39.280Z,97673.49
2019-04-23T13:02:40.254Z,97673.42
2019-04-23T13:05:05.049Z,97678.80
2019-04-23T13:10:01.498Z,97670.08
2019-04-23T13:12:50.258Z,97670.28
2019-04-23T13:15:05.824Z,97667.78
2019-04-23T13:22:43.002Z,97674.81
2019-04-23T13:25:34.576Z,97665.03
2019-04-23T13:28:06.739Z,97666.55
2019-04-23T13:30:50.826Z,97660.25
2019-04-23T13:33:08.167Z,97664.00
2019-04-23T13:35:48.694Z,97672.22
2019-04-23T13:38:07.642Z,97664.66
2019-04-23T13:40:33.071Z,97657.77
2019-04-23T13:43:19.179Z,97659.40
2019-04-23T13:48:03.419Z,97659.00
2019-04-23T13:50:37.272Z,97660.09
2019-04-23T13:55:21.738Z,97649.62
2019-04-23T13:58:21.558Z,97655.63
2019-04-23T14:00:41.866Z,97656.06
2019-04-23T14:02:54.769Z,97659.87
2019-04-23T14:06:01.759Z,97654.62
2019-04-23T14:08:33.524Z,97656.42
2019-04-23T14:16:22.801Z,97655.36
2019-04-23T14:20:57.534Z,97651.56
2019-04-23T14:23:41.197Z,97652.50
2019-04-23T14:26:10.473Z,97650.80
2019-04-23T14:28:28.094Z,97647.44
2019-04-23T14:30:59.145Z,97651.09
2019-04-23T14:33:37.922Z,97647.78
2019-04-23T14:35:53.651Z,97644.75
2019-04-23T14:41:06.046Z,97650.42
2019-04-23T14:43:22.602Z,97648.54
2019-04-23T14:46:27.129Z,97646.34
2019-04-23T14:48:39.113Z,97651.03
2019-04-23T14:51:16.558Z,97651.27
2019-04-23T14:53:42.715Z,97658.90
2019-04-23T15:01:22.400Z,97649.47
2019-04-23T15:03:40.200Z,97647.70
2019-04-23T15:13:39.124Z,97640.97
2019-04-23T15:24:00.812Z,97640.81
2019-04-23T15:28:34.108Z,97643.03
2019-04-23T15:34:02.181Z,97638.81
2019-04-23T15:36:32.116Z,97646.45
2019-04-23T15:41:24.984Z,97647.57
2019-04-23T15:43:57.253Z,97645.69
2019-04-23T15:46:31.031Z,97642.61
2019-04-23T15:49:01.433Z,97643.09
2019-04-23T15:51:28.573Z,97650.16
2019-04-23T15:53:52.843Z,97652.77
2019-04-23T15:56:33.529Z,97645.55
2019-04-23T15:59:04.442Z,97650.16
2019-04-23T16:03:22.280Z,97649.70
2019-04-23T16:05:50.948Z,97646.41
2019-04-23T16:08:59.691Z,97643.65
2019-04-23T16:11:32.816Z,97644.89
2019-04-23T16:14:05.876Z,97651.14
2019-04-23T16:16:26.004Z,97647.75
2019-04-23T16:19:21.961Z,97645.73
2019-04-23T16:21:59.020Z,97645.77
2019-04-23T16:26:55.860Z,97651.14
2019-04-23T16:32:26.354Z,97652.20
2019-04-23T16:34:38.090Z,97659.39
2019-04-23T16:39:58.356Z,97659.27
2019-04-23T16:42:26.242Z,97662.27
2019-04-23T16:49:57.645Z,97651.52
2019-04-23T16:52:24.880Z,97659.39
2019-04-23T17:00:34.155Z,97650.64
2019-04-23T17:02:21.201Z,97651.87
2019-04-23T17:07:13.165Z,97658.20
2019-04-23T17:09:51.179Z,97656.59
2019-04-23T17:12:13.450Z,97658.33
2019-04-23T17:14:48.165Z,97657.30
2019-04-23T17:17:15.626Z,97660.14
2019-04-23T17:19:48.425Z,97660.52
2019-04-23T17:22:17.622Z,97665.88
2019-04-23T17:24:56.474Z,97654.70
2019-04-23T17:27:24.174Z,97658.16
2019-04-23T17:32:16.525Z,97659.31
2019-04-23T17:35:17.534Z,97659.95
2019-04-23T17:40:44.837Z,97669.91
2019-04-23T17:43:01.496Z,97671.96
2019-04-23T17:45:46.621Z,97667.46
2019-04-23T17:48:12.918Z,97669.73
2019-04-23T17:56:01.088Z,97673.08
2019-04-23T17:58:24.237Z,97674.22
2019-04-23T18:01:02.505Z,97675.89
2019-04-23T18:03:25.627Z,97679.43
2019-04-23T18:06:08.898Z,97683.02
2019-04-23T18:08:17.745Z,97678.22
2019-04-23T18:10:59.467Z,97682.09
2019-04-23T18:13:25.550Z,97686.09
2019-04-23T18:15:59.900Z,97690.37
2019-04-23T18:18:31.008Z,97692.59
2019-04-23T18:21:32.273Z,97693.53
2019-04-23T18:24:24.209Z,97695.62
2019-04-23T18:27:00.095Z,97693.30
2019-04-23T18:29:44.004Z,97690.20
2019-04-23T18:32:43.406Z,97690.26
2019-04-23T18:35:19.344Z,97697.69
2019-04-23T18:37:34.264Z,97694.23
2019-04-23T18:40:03.676Z,97703.12
2019-04-23T18:42:41.173Z,97708.79
2019-04-23T18:45:16.750Z,97707.69
2019-04-23T18:47:48.741Z,97709.66
2019-04-23T18:50:10.352Z,97712.59
2019-04-23T18:55:18.824Z,97715.71
2019-04-23T18:57:41.812Z,97719.45
2019-04-23T19:03:01.323Z,97727.67
2019-04-23T19:08:32.073Z,97731.20
2019-04-23T19:11:02.032Z,97734.97
2019-04-23T19:16:02.294Z,97741.00
2019-04-23T19:18:35.600Z,97749.10
2019-04-23T19:23:42.844Z,97751.06
2019-04-23T19:26:02.195Z,97760.02
2019-04-23T19:31:42.084Z,97758.76
2019-04-23T19:36:49.223Z,97764.20
2019-04-23T19:39:11.541Z,97763.13
2019-04-23T19:41:49.523Z,97770.80
2019-04-23T19:44:08.597Z,97768.14
2019-04-23T19:47:00.208Z,97769.38
2019-04-23T19:49:11.186Z,97768.64
2019-04-23T19:51:45.498Z,97771.78
2019-04-23T19:54:19.464Z,97773.63
2019-04-23T19:59:14.940Z,97777.11
2019-04-23T20:01:39.034Z,97779.06
2019-04-23T20:04:04.167Z,97783.47
2019-04-23T20:07:07.530Z,97781.28
2019-04-23T20:11:52.735Z,97778.47
2019-04-23T20:14:11.835Z,97782.06
2019-04-23T20:16:49.005Z,97782.70
2019-04-23T20:19:19.321Z,97784.78
2019-04-23T20:21:57.359Z,97790.03
2019-04-23T20:26:50.903Z,97792.36
2019-04-23T20:30:14.401Z,97796.35
2019-04-23T20:35:00.301Z,97798.67
2019-04-23T20:37:25.866Z,97797.64
2019-04-23T20:42:16.275Z,97810.80
2019-04-23T20:45:05.987Z,97808.21
2019-04-23T20:47:39.896Z,97809.92
2019-04-23T20:52:13.706Z,97809.02
2019-04-23T20:57:43.917Z,97813.60
2019-04-23T21:00:04.919Z,97815.97
2019-04-23T21:03:25.844Z,97822.20
2019-04-23T21:05:24.561Z,97820.96
2019-04-23T21:20:35.658Z,97828.45
2019-04-23T21:23:04.633Z,97837.39
2019-04-23T21:25:30.490Z,97836.03
2019-04-23T21:33:15.799Z,97843.16
2019-04-23T21:36:18.523Z,97844.49
2019-04-23T21:39:15.151Z,97839.81
2019-04-23T21:44:12.974Z,97844.05
2019-04-23T21:46:51.396Z,97841.88
2019-04-23T21:49:37.239Z,97841.95
2019-04-23T21:52:05.098Z,97845.34
2019-04-23T21:54:06.099Z,97845.97
2019-04-23T21:56:44.618Z,97851.17
2019-04-23T21:59:06.898Z,97852.78
2019-04-23T22:04:24.679Z,97856.20
2019-04-23T22:06:52.733Z,97860.31
2019-04-23T22:09:22.611Z,97838.87
2019-04-23T22:14:27.091Z,97874.66
2019-04-23T22:17:01.546Z,97876.86
2019-04-23T22:22:00.916Z,97890.35
2019-04-23T22:24:31.650Z,97892.27
2019-04-23T22:26:57.633Z,97892.00
2019-04-23T22:29:35.841Z,97896.95
2019-04-23T22:32:23.471Z,97888.92
2019-04-23T22:34:57.450Z,97893.19
2019-04-23T22:37:17.842Z,97891.34
2019-04-23T22:42:36.364Z,97899.84
2019-04-23T22:44:57.621Z,97903.78
2019-04-23T22:47:08.920Z,97901.03
2019-04-23T22:52:21.702Z,97907.30
2019-04-23T22:54:56.598Z,97904.87
2019-04-23T22:57:23.333Z,97911.84
2019-04-23T23:00:03.282Z,97909.07
2019-04-23T23:02:44.337Z,97904.13
2019-04-23T23:05:15.433Z,97908.93
2019-04-23T23:07:42.818Z,97903.57
2019-04-23T23:10:09.017Z,97905.50
2019-04-23T23:13:01.726Z,97908.08
2019-04-23T23:15:22.768Z,97909.95
2019-04-23T23:18:02.370Z,97911.67
2019-04-23T23:22:58.457Z,97912.63
2019-04-23T23:25:20.570Z,97916.88
2019-04-23T23:27:52.093Z,97915.78
2019-04-23T23:30:19.688Z,97912.52
2019-04-23T23:35:24.510Z,97914.55
2019-04-23T23:37:50.487Z,97920.37
2019-04-23T23:43:00.243Z,97924.81
2019-04-23T23:45:40.898Z,97927.55
2019-04-23T23:47:52.223Z,97929.90
2019-04-23T23:50:35.345Z,97934.74
2019-04-23T23:53:29.783Z,97939.09
2019-04-23T23:55:48.721Z,97937.88
2019-04-23T23:58:18.356Z,97935.58
